sensor_id;sensor_type;location;lat;lon;timestamp;P1;durP1;ratioP1;P2;durP2;ratioP2
43706;SDS011;61348;53.392;-6.248;2023-07-28T03:01:46;1.70;;;1.10;;
43706;SDS011;61348;53.392;-6.248;2023-07-28T03:04:13;3.03;;;0.90;;
43706;SDS011;61348;53.392;-6.248;2023-07-28T03:06:39;4.15;;;1.02;;
43706;SDS011;61348;53.392;-6.248;2023-07-28T03:09:06;4.90;;;1.30;;
43706;SDS011;61348;53.392;-6.248;2023-07-28T03:11:33;7.07;;;1.30;;
43706;SDS011;61348;53.392;-6.248;2023-07-28T03:14:00;3.55;;;1.13;;
43706;SDS011;61348;53.392;-6.248;2023-07-28T03:16:26;2.13;;;1.10;;
43706;SDS011;61348;53.392;-6.248;2023-07-28T03:18:53;1.48;;;0.93;;
43706;SDS011;61348;53.392;-6.248;2023-07-28T03:21:20;10.65;;;1.98;;
43706;SDS011;61348;53.392;-6.248;2023-07-28T03:23:47;2.50;;;1.15;;
43706;SDS011;61348;53.392;-6.248;2023-07-28T03:26:13;4.63;;;0.82;;
43706;SDS011;61348;53.392;-6.248;2023-07-28T03:28:40;4.20;;;1.35;;
43706;SDS011;61348;53.392;-6.248;2023-07-28T03:31:07;4.22;;;1.20;;
43706;SDS011;61348;53.392;-6.248;2023-07-28T03:33:34;4.22;;;1.02;;
43706;SDS011;61348;53.392;-6.248;2023-07-28T03:36:00;4.55;;;1.30;;
43706;SDS011;61348;53.392;-6.248;2023-07-28T03:38:27;2.40;;;1.10;;
43706;SDS011;61348;53.392;-6.248;2023-07-28T03:40:54;2.78;;;1.45;;
43706;SDS011;61348;53.392;-6.248;2023-07-28T03:43:21;2.83;;;1.55;;
43706;SDS011;61348;53.392;-6.248;2023-07-28T03:45:48;1.27;;;0.85;;
43706;SDS011;61348;53.392;-6.248;2023-07-28T03:48:15;3.25;;;1.42;;
43706;SDS011;61348;53.392;-6.248;2023-07-28T03:50:41;3.38;;;1.60;;
43706;SDS011;61348;53.392;-6.248;2023-07-28T03:53:08;3.95;;;1.48;;
43706;SDS011;61348;53.392;-6.248;2023-07-28T03:55:35;6.43;;;1.10;;
43706;SDS011;61348;53.392;-6.248;2023-07-28T03:58:02;1.77;;;1.17;;
43706;SDS011;61348;53.392;-6.248;2023-07-28T04:00:29;4.00;;;1.20;;
43706;SDS011;61348;53.392;-6.248;2023-07-28T04:02:56;1.85;;;1.08;;
43706;SDS011;61348;53.392;-6.248;2023-07-28T04:05:24;2.47;;;1.05;;
43706;SDS011;61348;53.392;-6.248;2023-07-28T04:07:51;3.65;;;1.25;;
43706;SDS011;61348;53.392;-6.248;2023-07-28T04:10:18;4.65;;;1.08;;
43706;SDS011;61348;53.392;-6.248;2023-07-28T04:12:44;2.40;;;1.20;;
43706;SDS011;61348;53.392;-6.248;2023-07-28T04:15:11;3.17;;;1.20;;
43706;SDS011;61348;53.392;-6.248;2023-07-28T04:17:38;4.57;;;2.20;;
43706;SDS011;61348;53.392;-6.248;2023-07-28T04:20:05;3.38;;;1.20;;
43706;SDS011;61348;53.392;-6.248;2023-07-28T04:22:32;1.88;;;1.55;;
43706;SDS011;61348;53.392;-6.248;2023-07-28T04:24:59;3.10;;;1.13;;
43706;SDS011;61348;53.392;-6.248;2023-07-28T04:27:27;2.22;;;1.25;;
43706;SDS011;61348;53.392;-6.248;2023-07-28T04:29:57;3.78;;;1.50;;
43706;SDS011;61348;53.392;-6.248;2023-07-28T04:32:24;5.82;;;1.40;;
43706;SDS011;61348;53.392;-6.248;2023-07-28T04:34:52;2.15;;;1.10;;
43706;SDS011;61348;53.392;-6.248;2023-07-28T04:37:19;2.15;;;1.05;;
43706;SDS011;61348;53.392;-6.248;2023-07-28T04:39:46;8.30;;;0.80;;
43706;SDS011;61348;53.392;-6.248;2023-07-28T04:42:13;2.17;;;0.93;;
43706;SDS011;61348;53.392;-6.248;2023-07-28T04:44:40;4.18;;;1.17;;
43706;SDS011;61348;53.392;-6.248;2023-07-28T04:47:07;6.25;;;1.20;;
43706;SDS011;61348;53.392;-6.248;2023-07-28T04:49:34;2.53;;;0.63;;
43706;SDS011;61348;53.392;-6.248;2023-07-28T04:52:00;3.42;;;1.00;;
43706;SDS011;61348;53.392;-6.248;2023-07-28T04:54:27;2.85;;;1.10;;
43706;SDS011;61348;53.392;-6.248;2023-07-28T04:56:54;3.28;;;1.25;;
43706;SDS011;61348;53.392;-6.248;2023-07-28T04:59:20;5.10;;;2.38;;
43706;SDS011;61348;53.392;-6.248;2023-07-28T05:01:47;3.40;;;1.63;;
43706;SDS011;61348;53.392;-6.248;2023-07-28T05:04:14;3.03;;;2.15;;
43706;SDS011;61348;53.392;-6.248;2023-07-28T05:06:41;5.70;;;3.15;;
43706;SDS011;61348;53.392;-6.248;2023-07-28T05:09:07;5.40;;;2.50;;
43706;SDS011;61348;53.392;-6.248;2023-07-28T05:11:35;3.90;;;2.50;;
43706;SDS011;61348;53.392;-6.248;2023-07-28T05:14:02;6.28;;;2.30;;
43706;SDS011;61348;53.392;-6.248;2023-07-28T05:16:32;5.93;;;2.33;;
43706;SDS011;61348;53.392;-6.248;2023-07-28T05:18:59;3.85;;;2.03;;
43706;SDS011;61348;53.392;-6.248;2023-07-28T05:21:26;3.03;;;2.03;;
43706;SDS011;61348;53.392;-6.248;2023-07-28T05:23:53;4.68;;;2.40;;
43706;SDS011;61348;53.392;-6.248;2023-07-28T05:26:19;2.20;;;1.50;;
43706;SDS011;61348;53.392;-6.248;2023-07-28T05:28:46;8.07;;;1.73;;
43706;SDS011;61348;53.392;-6.248;2023-07-28T05:31:13;3.90;;;1.20;;
43706;SDS011;61348;53.392;-6.248;2023-07-28T05:33:42;3.22;;;1.35;;
43706;SDS011;61348;53.392;-6.248;2023-07-28T05:36:08;2.50;;;0.95;;
43706;SDS011;61348;53.392;-6.248;2023-07-28T05:38:35;6.38;;;1.23;;
43706;SDS011;61348;53.392;-6.248;2023-07-28T05:41:02;1.95;;;1.08;;
43706;SDS011;61348;53.392;-6.248;2023-07-28T05:43:30;3.13;;;1.23;;
43706;SDS011;61348;53.392;-6.248;2023-07-28T05:45:58;3.58;;;1.23;;
43706;SDS011;61348;53.392;-6.248;2023-07-28T05:48:26;3.90;;;1.45;;
43706;SDS011;61348;53.392;-6.248;2023-07-28T05:50:53;1.90;;;0.98;;
43706;SDS011;61348;53.392;-6.248;2023-07-28T05:53:20;3.55;;;1.00;;
43706;SDS011;61348;53.392;-6.248;2023-07-28T05:55:48;2.97;;;0.95;;
43706;SDS011;61348;53.392;-6.248;2023-07-28T05:58:15;4.00;;;1.50;;
43706;SDS011;61348;53.392;-6.248;2023-07-28T06:00:42;2.45;;;0.73;;
43706;SDS011;61348;53.392;-6.248;2023-07-28T06:03:11;1.15;;;0.90;;
43706;SDS011;61348;53.392;-6.248;2023-07-28T06:05:39;6.40;;;1.25;;
43706;SDS011;61348;53.392;-6.248;2023-07-28T06:08:09;6.10;;;1.38;;
43706;SDS011;61348;53.392;-6.248;2023-07-28T06:10:36;2.53;;;1.30;;
43706;SDS011;61348;53.392;-6.248;2023-07-28T06:13:03;3.15;;;1.48;;
43706;SDS011;61348;53.392;-6.248;2023-07-28T06:15:30;5.97;;;1.45;;
43706;SDS011;61348;53.392;-6.248;2023-07-28T06:17:57;8.98;;;2.53;;
43706;SDS011;61348;53.392;-6.248;2023-07-28T06:20:24;3.15;;;1.20;;
43706;SDS011;61348;53.392;-6.248;2023-07-28T06:22:51;4.13;;;1.60;;
43706;SDS011;61348;53.392;-6.248;2023-07-28T06:25:17;4.55;;;1.35;;
43706;SDS011;61348;53.392;-6.248;2023-07-28T06:27:44;8.50;;;1.83;;
43706;SDS011;61348;53.392;-6.248;2023-07-28T06:30:11;3.25;;;0.90;;
43706;SDS011;61348;53.392;-6.248;2023-07-28T06:32:38;5.30;;;1.50;;
43706;SDS011;61348;53.392;-6.248;2023-07-28T06:35:08;4.05;;;1.20;;
43706;SDS011;61348;53.392;-6.248;2023-07-28T06:37:36;3.40;;;1.15;;
43706;SDS011;61348;53.392;-6.248;2023-07-28T06:40:05;2.55;;;0.80;;
43706;SDS011;61348;53.392;-6.248;2023-07-28T06:42:33;2.13;;;1.10;;
43706;SDS011;61348;53.392;-6.248;2023-07-28T06:45:00;2.90;;;0.90;;
43706;SDS011;61348;53.392;-6.248;2023-07-28T06:47:28;2.85;;;0.75;;
43706;SDS011;61348;53.392;-6.248;2023-07-28T06:49:55;2.65;;;0.75;;
43706;SDS011;61348;53.392;-6.248;2023-07-28T06:52:22;1.73;;;1.15;;
43706;SDS011;61348;53.392;-6.248;2023-07-28T06:54:49;1.98;;;1.10;;
43706;SDS011;61348;53.392;-6.248;2023-07-28T06:57:15;4.32;;;2.40;;
43706;SDS011;61348;53.392;-6.248;2023-07-28T06:59:42;4.40;;;1.02;;
43706;SDS011;61348;53.392;-6.248;2023-07-28T07:02:09;2.60;;;0.90;;
43706;SDS011;61348;53.392;-6.248;2023-07-28T07:04:36;1.42;;;0.93;;
43706;SDS011;61348;53.392;-6.248;2023-07-28T07:07:03;6.07;;;1.00;;
43706;SDS011;61348;53.392;-6.248;2023-07-28T07:09:30;2.65;;;1.13;;
43706;SDS011;61348;53.392;-6.248;2023-07-28T07:11:57;2.67;;;1.20;;
43706;SDS011;61348;53.392;-6.248;2023-07-28T07:14:24;2.55;;;0.90;;
43706;SDS011;61348;53.392;-6.248;2023-07-28T07:16:50;2.30;;;1.00;;
43706;SDS011;61348;53.392;-6.248;2023-07-28T07:19:17;1.65;;;0.90;;
43706;SDS011;61348;53.392;-6.248;2023-07-28T07:21:44;2.72;;;0.93;;
43706;SDS011;61348;53.392;-6.248;2023-07-28T07:24:11;3.55;;;0.80;;
43706;SDS011;61348;53.392;-6.248;2023-07-28T07:26:40;3.63;;;1.20;;
43706;SDS011;61348;53.392;-6.248;2023-07-28T07:29:10;4.03;;;1.08;;
43706;SDS011;61348;53.392;-6.248;2023-07-28T07:31:36;3.00;;;0.70;;
43706;SDS011;61348;53.392;-6.248;2023-07-28T07:34:04;6.47;;;1.83;;
43706;SDS011;61348;53.392;-6.248;2023-07-28T07:36:31;1.67;;;1.00;;
43706;SDS011;61348;53.392;-6.248;2023-07-28T07:38:57;2.00;;;1.00;;
43706;SDS011;61348;53.392;-6.248;2023-07-28T07:41:25;3.10;;;1.00;;
43706;SDS011;61348;53.392;-6.248;2023-07-28T07:43:52;1.52;;;0.70;;
43706;SDS011;61348;53.392;-6.248;2023-07-28T07:46:20;1.52;;;0.73;;
43706;SDS011;61348;53.392;-6.248;2023-07-28T07:48:47;2.85;;;1.02;;
43706;SDS011;61348;53.392;-6.248;2023-07-28T07:51:14;2.50;;;0.77;;
43706;SDS011;61348;53.392;-6.248;2023-07-28T07:53:41;1.55;;;0.60;;
43706;SDS011;61348;53.392;-6.248;2023-07-28T07:56:08;4.05;;;0.60;;
43706;SDS011;61348;53.392;-6.248;2023-07-28T07:58:36;1.80;;;0.60;;
43706;SDS011;61348;53.392;-6.248;2023-07-28T08:01:03;2.08;;;0.60;;
43706;SDS011;61348;53.392;-6.248;2023-07-28T08:03:31;3.78;;;1.40;;
43706;SDS011;61348;53.392;-6.248;2023-07-28T08:06:03;1.17;;;0.50;;
43706;SDS011;61348;53.392;-6.248;2023-07-28T08:08:30;1.88;;;0.60;;
43706;SDS011;61348;53.392;-6.248;2023-07-28T08:10:57;2.30;;;0.60;;
43706;SDS011;61348;53.392;-6.248;2023-07-28T08:13:25;1.60;;;0.60;;
43706;SDS011;61348;53.392;-6.248;2023-07-28T08:15:52;3.67;;;0.77;;
43706;SDS011;61348;53.392;-6.248;2023-07-28T08:18:19;2.42;;;0.60;;
43706;SDS011;61348;53.392;-6.248;2023-07-28T08:20:46;0.77;;;0.50;;
43706;SDS011;61348;53.392;-6.248;2023-07-28T08:23:12;1.92;;;0.80;;
43706;SDS011;61348;53.392;-6.248;2023-07-28T08:25:39;4.38;;;0.68;;
43706;SDS011;61348;53.392;-6.248;2023-07-28T08:28:06;1.08;;;0.57;;
43706;SDS011;61348;53.392;-6.248;2023-07-28T08:30:33;1.10;;;0.50;;
43706;SDS011;61348;53.392;-6.248;2023-07-28T08:33:00;3.03;;;0.70;;
43706;SDS011;61348;53.392;-6.248;2023-07-28T08:35:28;2.88;;;1.13;;
43706;SDS011;61348;53.392;-6.248;2023-07-28T08:37:55;1.10;;;0.35;;
43706;SDS011;61348;53.392;-6.248;2023-07-28T08:40:22;0.93;;;0.68;;
43706;SDS011;61348;53.392;-6.248;2023-07-28T08:42:50;0.70;;;0.55;;
43706;SDS011;61348;53.392;-6.248;2023-07-28T08:45:18;2.75;;;0.60;;
43706;SDS011;61348;53.392;-6.248;2023-07-28T08:47:45;1.48;;;0.88;;
43706;SDS011;61348;53.392;-6.248;2023-07-28T08:50:12;1.45;;;0.70;;
43706;SDS011;61348;53.392;-6.248;2023-07-28T08:52:39;5.88;;;0.80;;
43706;SDS011;61348;53.392;-6.248;2023-07-28T08:55:09;1.30;;;0.75;;
43706;SDS011;61348;53.392;-6.248;2023-07-28T08:57:36;0.68;;;0.65;;
43706;SDS011;61348;53.392;-6.248;2023-07-28T09:00:09;2.00;;;0.60;;
43706;SDS011;61348;53.392;-6.248;2023-07-28T09:02:40;2.53;;;0.75;;
43706;SDS011;61348;53.392;-6.248;2023-07-28T09:05:09;2.28;;;0.88;;
43706;SDS011;61348;53.392;-6.248;2023-07-28T09:07:44;2.53;;;0.60;;
43706;SDS011;61348;53.392;-6.248;2023-07-28T09:10:11;2.63;;;0.40;;
43706;SDS011;61348;53.392;-6.248;2023-07-28T09:12:47;2.60;;;0.60;;
43706;SDS011;61348;53.392;-6.248;2023-07-28T09:15:15;3.30;;;1.17;;
43706;SDS011;61348;53.392;-6.248;2023-07-28T09:17:45;0.75;;;0.35;;
43706;SDS011;61348;53.392;-6.248;2023-07-28T09:20:16;1.02;;;0.47;;
43706;SDS011;61348;53.392;-6.248;2023-07-28T09:22:43;1.02;;;0.57;;
43706;SDS011;61348;53.392;-6.248;2023-07-28T09:25:14;1.20;;;0.45;;
43706;SDS011;61348;53.392;-6.248;2023-07-28T09:27:49;1.70;;;0.68;;
43706;SDS011;61348;53.392;-6.248;2023-07-28T09:30:17;2.25;;;0.55;;
43706;SDS011;61348;53.392;-6.248;2023-07-28T09:32:49;1.35;;;0.60;;
43706;SDS011;61348;53.392;-6.248;2023-07-28T09:35:17;1.20;;;0.40;;
43706;SDS011;61348;53.392;-6.248;2023-07-28T09:37:46;3.00;;;0.50;;
43706;SDS011;61348;53.392;-6.248;2023-07-28T09:40:19;1.58;;;0.65;;
43706;SDS011;61348;53.392;-6.248;2023-07-28T09:42:48;1.67;;;0.30;;
43706;SDS011;61348;53.392;-6.248;2023-07-28T09:45:21;1.85;;;0.40;;
43706;SDS011;61348;53.392;-6.248;2023-07-28T09:48:05;0.32;;;0.30;;
43706;SDS011;61348;53.392;-6.248;2023-07-28T09:50:36;1.10;;;0.30;;
43706;SDS011;61348;53.392;-6.248;2023-07-28T09:53:05;0.95;;;0.30;;
43706;SDS011;61348;53.392;-6.248;2023-07-28T09:55:34;1.05;;;0.30;;
43706;SDS011;61348;53.392;-6.248;2023-07-28T09:58:04;0.40;;;0.22;;
43706;SDS011;61348;53.392;-6.248;2023-07-28T10:00:34;1.35;;;0.40;;
43706;SDS011;61348;53.392;-6.248;2023-07-28T10:03:02;8.48;;;1.85;;
43706;SDS011;61348;53.392;-6.248;2023-07-28T10:05:30;1.05;;;0.32;;
43706;SDS011;61348;53.392;-6.248;2023-07-28T10:07:56;3.03;;;0.30;;
43706;SDS011;61348;53.392;-6.248;2023-07-28T10:10:24;1.10;;;0.40;;
43706;SDS011;61348;53.392;-6.248;2023-07-28T10:12:54;2.78;;;0.50;;
43706;SDS011;61348;53.392;-6.248;2023-07-28T10:15:31;2.33;;;0.60;;
43706;SDS011;61348;53.392;-6.248;2023-07-28T10:17:59;0.85;;;0.35;;
43706;SDS011;61348;53.392;-6.248;2023-07-28T10:20:34;1.70;;;0.65;;
43706;SDS011;61348;53.392;-6.248;2023-07-28T10:23:03;0.45;;;0.30;;
43706;SDS011;61348;53.392;-6.248;2023-07-28T10:25:35;1.05;;;0.30;;
43706;SDS011;61348;53.392;-6.248;2023-07-28T10:28:04;0.50;;;0.50;;
43706;SDS011;61348;53.392;-6.248;2023-07-28T10:30:36;2.22;;;0.30;;
43706;SDS011;61348;53.392;-6.248;2023-07-28T10:33:04;0.70;;;0.60;;
43706;SDS011;61348;53.392;-6.248;2023-07-28T10:35:31;0.60;;;0.30;;
43706;SDS011;61348;53.392;-6.248;2023-07-28T10:41:07;0.70;;;0.30;;
43706;SDS011;61348;53.392;-6.248;2023-07-28T10:43:45;0.50;;;0.22;;
43706;SDS011;61348;53.392;-6.248;2023-07-28T10:46:16;0.30;;;0.30;;
43706;SDS011;61348;53.392;-6.248;2023-07-28T10:48:45;0.68;;;0.45;;
43706;SDS011;61348;53.392;-6.248;2023-07-28T10:51:22;0.35;;;0.20;;
43706;SDS011;61348;53.392;-6.248;2023-07-28T10:53:55;1.60;;;0.30;;
43706;SDS011;61348;53.392;-6.248;2023-07-28T10:56:22;2.80;;;0.60;;
43706;SDS011;61348;53.392;-6.248;2023-07-28T10:59:03;2.65;;;1.40;;
43706;SDS011;61348;53.392;-6.248;2023-07-28T11:01:34;4.05;;;0.90;;
43706;SDS011;61348;53.392;-6.248;2023-07-28T11:04:10;0.22;;;0.22;;
43706;SDS011;61348;53.392;-6.248;2023-07-28T11:06:42;0.73;;;0.40;;
43706;SDS011;61348;53.392;-6.248;2023-07-28T11:09:11;0.65;;;0.30;;
43706;SDS011;61348;53.392;-6.248;2023-07-28T11:11:39;2.20;;;0.50;;
43706;SDS011;61348;53.392;-6.248;2023-07-28T11:14:10;0.30;;;0.10;;
43706;SDS011;61348;53.392;-6.248;2023-07-28T11:16:38;0.35;;;0.35;;
43706;SDS011;61348;53.392;-6.248;2023-07-28T11:19:08;2.45;;;0.10;;
43706;SDS011;61348;53.392;-6.248;2023-07-28T11:21:37;0.47;;;0.30;;
43706;SDS011;61348;53.392;-6.248;2023-07-28T11:24:06;0.35;;;0.10;;
43706;SDS011;61348;53.392;-6.248;2023-07-28T11:26:35;1.50;;;0.20;;
43706;SDS011;61348;53.392;-6.248;2023-07-28T11:29:03;0.10;;;0.10;;
43706;SDS011;61348;53.392;-6.248;2023-07-28T11:31:31;0.65;;;0.20;;
43706;SDS011;61348;53.392;-6.248;2023-07-28T11:34:00;0.63;;;0.30;;
43706;SDS011;61348;53.392;-6.248;2023-07-28T11:36:28;0.40;;;0.17;;
43706;SDS011;61348;53.392;-6.248;2023-07-28T11:38:59;1.07;;;0.27;;
43706;SDS011;61348;53.392;-6.248;2023-07-28T11:41:26;0.80;;;0.10;;
43706;SDS011;61348;53.392;-6.248;2023-07-28T11:43:54;0.28;;;0.15;;
43706;SDS011;61348;53.392;-6.248;2023-07-28T11:46:38;1.23;;;0.17;;
43706;SDS011;61348;53.392;-6.248;2023-07-28T11:49:16;0.10;;;0.10;;
43706;SDS011;61348;53.392;-6.248;2023-07-28T11:54:16;1.15;;;0.15;;
43706;SDS011;61348;53.392;-6.248;2023-07-28T11:56:46;1.53;;;0.30;;
43706;SDS011;61348;53.392;-6.248;2023-07-28T11:59:15;2.15;;;0.20;;
43706;SDS011;61348;53.392;-6.248;2023-07-28T12:01:57;0.95;;;0.35;;
43706;SDS011;61348;53.392;-6.248;2023-07-28T12:04:28;0.88;;;0.40;;
43706;SDS011;61348;53.392;-6.248;2023-07-28T12:07:13;0.75;;;0.20;;
43706;SDS011;61348;53.392;-6.248;2023-07-28T12:12:23;1.05;;;0.20;;
43706;SDS011;61348;53.392;-6.248;2023-07-28T12:14:52;0.30;;;0.30;;
43706;SDS011;61348;53.392;-6.248;2023-07-28T12:17:23;0.32;;;0.30;;
43706;SDS011;61348;53.392;-6.248;2023-07-28T12:20:14;0.50;;;0.28;;
43706;SDS011;61348;53.392;-6.248;2023-07-28T12:22:45;0.38;;;0.20;;
43706;SDS011;61348;53.392;-6.248;2023-07-28T12:25:12;0.40;;;0.20;;
43706;SDS011;61348;53.392;-6.248;2023-07-28T12:27:39;0.63;;;0.22;;
43706;SDS011;61348;53.392;-6.248;2023-07-28T12:30:07;1.50;;;0.35;;
43706;SDS011;61348;53.392;-6.248;2023-07-28T12:32:38;0.47;;;0.30;;
43706;SDS011;61348;53.392;-6.248;2023-07-28T12:35:25;2.90;;;0.60;;
43706;SDS011;61348;53.392;-6.248;2023-07-28T12:38:00;0.73;;;0.30;;
43706;SDS011;61348;53.392;-6.248;2023-07-28T12:40:50;0.77;;;0.30;;
43706;SDS011;61348;53.392;-6.248;2023-07-28T12:43:21;0.20;;;0.20;;
43706;SDS011;61348;53.392;-6.248;2023-07-28T12:45:51;6.75;;;0.50;;
43706;SDS011;61348;53.392;-6.248;2023-07-28T12:48:23;2.72;;;0.68;;
43706;SDS011;61348;53.392;-6.248;2023-07-28T12:50:50;1.80;;;0.38;;
43706;SDS011;61348;53.392;-6.248;2023-07-28T12:53:29;0.40;;;0.40;;
43706;SDS011;61348;53.392;-6.248;2023-07-28T12:55:57;0.68;;;0.40;;
43706;SDS011;61348;53.392;-6.248;2023-07-28T12:58:26;0.65;;;0.40;;
43706;SDS011;61348;53.392;-6.248;2023-07-28T13:00:57;0.70;;;0.60;;
43706;SDS011;61348;53.392;-6.248;2023-07-28T13:03:28;2.10;;;0.75;;
43706;SDS011;61348;53.392;-6.248;2023-07-28T13:05:55;1.70;;;0.60;;
43706;SDS011;61348;53.392;-6.248;2023-07-28T13:08:22;4.28;;;0.60;;
43706;SDS011;61348;53.392;-6.248;2023-07-28T13:10:51;0.55;;;0.43;;
43706;SDS011;61348;53.392;-6.248;2023-07-28T13:13:21;2.75;;;0.55;;
43706;SDS011;61348;53.392;-6.248;2023-07-28T13:15:48;1.20;;;0.55;;
43706;SDS011;61348;53.392;-6.248;2023-07-28T13:18:15;0.55;;;0.50;;
43706;SDS011;61348;53.392;-6.248;2023-07-28T13:20:41;1.00;;;0.55;;
43706;SDS011;61348;53.392;-6.248;2023-07-28T13:23:08;1.75;;;0.65;;
43706;SDS011;61348;53.392;-6.248;2023-07-28T13:25:35;0.75;;;0.50;;
43706;SDS011;61348;53.392;-6.248;2023-07-28T13:28:02;0.75;;;0.75;;
43706;SDS011;61348;53.392;-6.248;2023-07-28T13:30:28;1.90;;;0.50;;
43706;SDS011;61348;53.392;-6.248;2023-07-28T13:32:55;2.10;;;0.60;;
43706;SDS011;61348;53.392;-6.248;2023-07-28T13:35:23;2.20;;;0.88;;
43706;SDS011;61348;53.392;-6.248;2023-07-28T13:37:51;2.25;;;0.50;;
43706;SDS011;61348;53.392;-6.248;2023-07-28T13:40:18;1.13;;;0.47;;
43706;SDS011;61348;53.392;-6.248;2023-07-28T13:42:45;0.80;;;0.63;;
43706;SDS011;61348;53.392;-6.248;2023-07-28T13:45:12;1.42;;;0.50;;
43706;SDS011;61348;53.392;-6.248;2023-07-28T13:47:39;1.58;;;0.50;;
43706;SDS011;61348;53.392;-6.248;2023-07-28T13:50:06;1.17;;;0.60;;
43706;SDS011;61348;53.392;-6.248;2023-07-28T13:52:33;1.27;;;0.50;;
43706;SDS011;61348;53.392;-6.248;2023-07-28T13:55:00;1.20;;;0.55;;
43706;SDS011;61348;53.392;-6.248;2023-07-28T13:57:33;2.65;;;0.90;;
43706;SDS011;61348;53.392;-6.248;2023-07-28T14:00:00;2.72;;;0.70;;
43706;SDS011;61348;53.392;-6.248;2023-07-28T14:02:27;0.85;;;0.60;;
43706;SDS011;61348;53.392;-6.248;2023-07-28T14:04:54;1.10;;;0.70;;
43706;SDS011;61348;53.392;-6.248;2023-07-28T14:07:21;0.63;;;0.32;;
43706;SDS011;61348;53.392;-6.248;2023-07-28T14:09:48;0.93;;;0.40;;
43706;SDS011;61348;53.392;-6.248;2023-07-28T14:12:15;0.43;;;0.22;;
43706;SDS011;61348;53.392;-6.248;2023-07-28T14:14:41;1.65;;;0.30;;
43706;SDS011;61348;53.392;-6.248;2023-07-28T14:17:09;1.27;;;0.55;;
43706;SDS011;61348;53.392;-6.248;2023-07-28T14:19:37;2.42;;;0.68;;
43706;SDS011;61348;53.392;-6.248;2023-07-28T14:22:05;0.95;;;0.35;;
43706;SDS011;61348;53.392;-6.248;2023-07-28T14:24:32;1.52;;;0.60;;
43706;SDS011;61348;53.392;-6.248;2023-07-28T14:26:59;1.23;;;0.55;;
43706;SDS011;61348;53.392;-6.248;2023-07-28T14:29:26;1.85;;;0.60;;
43706;SDS011;61348;53.392;-6.248;2023-07-28T14:31:53;1.42;;;0.80;;
43706;SDS011;61348;53.392;-6.248;2023-07-28T14:34:20;1.33;;;0.88;;
43706;SDS011;61348;53.392;-6.248;2023-07-28T15:12:35;3.97;;;0.43;;
43706;SDS011;61348;53.392;-6.248;2023-07-28T15:15:02;2.70;;;0.75;;
43706;SDS011;61348;53.392;-6.248;2023-07-28T15:17:29;1.13;;;0.43;;
43706;SDS011;61348;53.392;-6.248;2023-07-28T15:19:56;0.50;;;0.47;;
43706;SDS011;61348;53.392;-6.248;2023-07-28T15:22:23;1.20;;;0.40;;
43706;SDS011;61348;53.392;-6.248;2023-07-28T15:24:50;0.73;;;0.50;;
43706;SDS011;61348;53.392;-6.248;2023-07-28T15:27:17;3.67;;;0.90;;
43706;SDS011;61348;53.392;-6.248;2023-07-28T15:29:44;6.00;;;0.95;;
43706;SDS011;61348;53.392;-6.248;2023-07-28T15:32:11;0.90;;;0.45;;
43706;SDS011;61348;53.392;-6.248;2023-07-28T15:34:38;0.85;;;0.63;;
43706;SDS011;61348;53.392;-6.248;2023-07-28T15:37:05;1.95;;;0.50;;
43706;SDS011;61348;53.392;-6.248;2023-07-28T15:39:32;3.83;;;0.63;;
43706;SDS011;61348;53.392;-6.248;2023-07-28T15:41:59;2.50;;;0.45;;
43706;SDS011;61348;53.392;-6.248;2023-07-28T15:44:26;1.58;;;0.60;;
43706;SDS011;61348;53.392;-6.248;2023-07-28T15:46:53;2.45;;;0.70;;
43706;SDS011;61348;53.392;-6.248;2023-07-28T15:49:20;2.80;;;0.65;;
43706;SDS011;61348;53.392;-6.248;2023-07-28T15:51:47;1.00;;;0.60;;
43706;SDS011;61348;53.392;-6.248;2023-07-28T15:54:14;0.82;;;0.40;;
43706;SDS011;61348;53.392;-6.248;2023-07-28T15:56:42;0.88;;;0.47;;
43706;SDS011;61348;53.392;-6.248;2023-07-28T15:59:11;3.50;;;0.70;;
43706;SDS011;61348;53.392;-6.248;2023-07-28T16:01:37;1.00;;;0.68;;
43706;SDS011;61348;53.392;-6.248;2023-07-28T16:04:05;1.42;;;0.52;;
43706;SDS011;61348;53.392;-6.248;2023-07-28T16:06:33;0.85;;;0.40;;
43706;SDS011;61348;53.392;-6.248;2023-07-28T16:09:03;1.15;;;0.32;;
43706;SDS011;61348;53.392;-6.248;2023-07-28T16:11:34;0.70;;;0.40;;
43706;SDS011;61348;53.392;-6.248;2023-07-28T16:14:01;0.52;;;0.40;;
43706;SDS011;61348;53.392;-6.248;2023-07-28T16:16:28;0.57;;;0.57;;
43706;SDS011;61348;53.392;-6.248;2023-07-28T16:18:54;2.03;;;0.60;;
43706;SDS011;61348;53.392;-6.248;2023-07-28T16:21:21;1.00;;;0.63;;
43706;SDS011;61348;53.392;-6.248;2023-07-28T16:23:48;2.38;;;0.57;;
43706;SDS011;61348;53.392;-6.248;2023-07-28T16:26:15;5.70;;;0.50;;
43706;SDS011;61348;53.392;-6.248;2023-07-28T16:28:42;1.73;;;0.60;;
43706;SDS011;61348;53.392;-6.248;2023-07-28T16:31:10;2.00;;;0.70;;
43706;SDS011;61348;53.392;-6.248;2023-07-28T16:33:36;3.10;;;0.60;;
43706;SDS011;61348;53.392;-6.248;2023-07-28T16:36:09;3.20;;;0.68;;
43706;SDS011;61348;53.392;-6.248;2023-07-28T16:38:39;1.25;;;0.68;;
43706;SDS011;61348;53.392;-6.248;2023-07-28T16:41:07;0.75;;;0.70;;
43706;SDS011;61348;53.392;-6.248;2023-07-28T16:43:34;3.00;;;0.95;;
43706;SDS011;61348;53.392;-6.248;2023-07-28T16:46:01;0.85;;;0.80;;
43706;SDS011;61348;53.392;-6.248;2023-07-28T16:48:28;1.63;;;0.65;;
43706;SDS011;61348;53.392;-6.248;2023-07-28T16:50:54;3.13;;;0.95;;
43706;SDS011;61348;53.392;-6.248;2023-07-28T16:53:21;1.63;;;0.40;;
43706;SDS011;61348;53.392;-6.248;2023-07-28T16:55:49;2.78;;;0.60;;
43706;SDS011;61348;53.392;-6.248;2023-07-28T16:58:16;2.70;;;0.68;;
43706;SDS011;61348;53.392;-6.248;2023-07-28T17:00:43;3.50;;;0.80;;
43706;SDS011;61348;53.392;-6.248;2023-07-28T17:03:12;1.45;;;0.93;;
43706;SDS011;61348;53.392;-6.248;2023-07-28T17:05:39;3.53;;;0.95;;
43706;SDS011;61348;53.392;-6.248;2023-07-28T17:08:06;5.05;;;0.70;;
43706;SDS011;61348;53.392;-6.248;2023-07-28T17:10:33;3.15;;;0.93;;
43706;SDS011;61348;53.392;-6.248;2023-07-28T17:12:59;2.60;;;0.70;;
43706;SDS011;61348;53.392;-6.248;2023-07-28T17:15:27;2.10;;;1.05;;
43706;SDS011;61348;53.392;-6.248;2023-07-28T17:18:05;2.00;;;0.93;;
43706;SDS011;61348;53.392;-6.248;2023-07-28T17:20:32;2.63;;;0.88;;
43706;SDS011;61348;53.392;-6.248;2023-07-28T17:22:59;3.00;;;0.93;;
43706;SDS011;61348;53.392;-6.248;2023-07-28T17:25:26;1.40;;;0.90;;
43706;SDS011;61348;53.392;-6.248;2023-07-28T17:27:53;3.72;;;0.82;;
43706;SDS011;61348;53.392;-6.248;2023-07-28T17:30:20;7.00;;;2.78;;
43706;SDS011;61348;53.392;-6.248;2023-07-28T17:32:47;3.60;;;0.80;;
43706;SDS011;61348;53.392;-6.248;2023-07-28T17:35:14;3.42;;;0.90;;
43706;SDS011;61348;53.392;-6.248;2023-07-28T17:37:41;2.00;;;1.20;;
43706;SDS011;61348;53.392;-6.248;2023-07-28T17:40:08;4.18;;;1.00;;
43706;SDS011;61348;53.392;-6.248;2023-07-28T17:42:36;2.58;;;1.45;;
43706;SDS011;61348;53.392;-6.248;2023-07-28T17:45:04;4.63;;;1.77;;
43706;SDS011;61348;53.392;-6.248;2023-07-28T17:47:34;3.25;;;1.00;;
43706;SDS011;61348;53.392;-6.248;2023-07-28T17:50:07;3.35;;;0.90;;
43706;SDS011;61348;53.392;-6.248;2023-07-28T17:52:35;2.58;;;1.08;;
43706;SDS011;61348;53.392;-6.248;2023-07-28T17:55:02;4.13;;;1.23;;
43706;SDS011;61348;53.392;-6.248;2023-07-28T17:57:29;4.82;;;1.17;;
43706;SDS011;61348;53.392;-6.248;2023-07-28T17:59:56;2.83;;;1.10;;
43706;SDS011;61348;53.392;-6.248;2023-07-28T18:02:23;3.22;;;1.42;;
43706;SDS011;61348;53.392;-6.248;2023-07-28T18:04:50;2.88;;;1.00;;
43706;SDS011;61348;53.392;-6.248;2023-07-28T18:07:17;3.30;;;0.68;;
43706;SDS011;61348;53.392;-6.248;2023-07-28T18:09:44;3.67;;;1.15;;
43706;SDS011;61348;53.392;-6.248;2023-07-28T18:12:10;4.70;;;1.20;;
43706;SDS011;61348;53.392;-6.248;2023-07-28T18:14:37;4.38;;;1.20;;
43706;SDS011;61348;53.392;-6.248;2023-07-28T18:17:04;2.90;;;1.10;;
43706;SDS011;61348;53.392;-6.248;2023-07-28T18:19:31;2.95;;;1.05;;
43706;SDS011;61348;53.392;-6.248;2023-07-28T18:21:58;2.85;;;1.20;;
43706;SDS011;61348;53.392;-6.248;2023-07-28T18:24:25;4.00;;;1.40;;